Quartz Hill, California
Current Conditions -  °F | °C
As of 11:53 PM on Saturday 20 Dec 2014 (Local Time) from KPMD Reporting Station
Clear Clear  
Wind Chill: 45°   Ceiling: Unl
Heat Index: 48°   Visibility: 10mi
Dew Point: 45°   Wind: 6mph
Humidity: 89%   Direction: 230°SW
Pressure: 30.22"   Gusts: NA
Location:  34.5959°N, 118.235°W
Report Text: KPMD 210753Z AUTO 23005KT 10SM CLR 09/07 A3022 RMK AO2 SLP230 T00890072 401440039
Loading
Personal Weather Stations






























Interactive Weather Map New forecast layout! Learn more

10-Day Weather Forecast

Advertisements
Track Severe Weather on mobile